sensor_id;sensor_type;location;lat;lon;timestamp;P1;durP1;ratioP1;P2;durP2;ratioP2
76123;SDS011;65173;48.066;20.976;2023-05-18T00:01:26;0.13;;;0.13;;
76123;SDS011;65173;48.066;20.976;2023-05-18T00:04:29;0.63;;;0.20;;
76123;SDS011;65173;48.066;20.976;2023-05-18T00:07:33;0.53;;;0.10;;
76123;SDS011;65173;48.066;20.976;2023-05-18T00:10:36;0.10;;;0.10;;
76123;SDS011;65173;48.066;20.976;2023-05-18T00:13:39;0.28;;;0.20;;
76123;SDS011;65173;48.066;20.976;2023-05-18T00:16:42;0.17;;;0.15;;
76123;SDS011;65173;48.066;20.976;2023-05-18T00:19:45;0.08;;;0.08;;
76123;SDS011;65173;48.066;20.976;2023-05-18T00:22:47;0.05;;;0.00;;
76123;SDS011;65173;48.066;20.976;2023-05-18T00:25:52;0.10;;;0.10;;
76123;SDS011;65173;48.066;20.976;2023-05-18T00:28:54;0.40;;;0.20;;
76123;SDS011;65173;48.066;20.976;2023-05-18T00:31:57;0.20;;;0.20;;
76123;SDS011;65173;48.066;20.976;2023-05-18T00:35:00;0.25;;;0.20;;
76123;SDS011;65173;48.066;20.976;2023-05-18T00:38:02;0.10;;;0.10;;
76123;SDS011;65173;48.066;20.976;2023-05-18T00:41:05;0.45;;;0.00;;
76123;SDS011;65173;48.066;20.976;2023-05-18T00:44:08;0.45;;;0.17;;
76123;SDS011;65173;48.066;20.976;2023-05-18T00:47:10;0.15;;;0.10;;
76123;SDS011;65173;48.066;20.976;2023-05-18T00:50:13;0.35;;;0.17;;
76123;SDS011;65173;48.066;20.976;2023-05-18T00:53:16;0.22;;;0.15;;
76123;SDS011;65173;48.066;20.976;2023-05-18T00:56:19;0.10;;;0.10;;
76123;SDS011;65173;48.066;20.976;2023-05-18T00:59:24;0.23;;;0.10;;
76123;SDS011;65173;48.066;20.976;2023-05-18T01:02:27;0.05;;;0.05;;
76123;SDS011;65173;48.066;20.976;2023-05-18T01:05:31;0.55;;;0.55;;
76123;SDS011;65173;48.066;20.976;2023-05-18T01:08:35;0.20;;;0.00;;
76123;SDS011;65173;48.066;20.976;2023-05-18T01:15:09;0.20;;;0.10;;
76123;SDS011;65173;48.066;20.976;2023-05-18T01:18:27;0.10;;;0.10;;
76123;SDS011;65173;48.066;20.976;2023-05-18T01:25:07;0.10;;;0.10;;
76123;SDS011;65173;48.066;20.976;2023-05-18T01:28:23;1.67;;;0.10;;
76123;SDS011;65173;48.066;20.976;2023-05-18T01:31:29;0.10;;;0.10;;
76123;SDS011;65173;48.066;20.976;2023-05-18T01:34:32;0.10;;;0.10;;
76123;SDS011;65173;48.066;20.976;2023-05-18T01:37:35;0.00;;;0.00;;
76123;SDS011;65173;48.066;20.976;2023-05-18T01:40:40;0.10;;;0.10;;
76123;SDS011;65173;48.066;20.976;2023-05-18T01:44:14;0.55;;;0.22;;
76123;SDS011;65173;48.066;20.976;2023-05-18T01:47:19;0.10;;;0.10;;
76123;SDS011;65173;48.066;20.976;2023-05-18T01:50:23;0.30;;;0.10;;
76123;SDS011;65173;48.066;20.976;2023-05-18T01:53:42;0.00;;;0.00;;
76123;SDS011;65173;48.066;20.976;2023-05-18T01:56:50;0.20;;;0.10;;
76123;SDS011;65173;48.066;20.976;2023-05-18T01:59:57;1.08;;;0.22;;
76123;SDS011;65173;48.066;20.976;2023-05-18T02:03:01;0.20;;;0.20;;
76123;SDS011;65173;48.066;20.976;2023-05-18T02:06:04;0.20;;;0.10;;
76123;SDS011;65173;48.066;20.976;2023-05-18T02:09:07;0.08;;;0.00;;
76123;SDS011;65173;48.066;20.976;2023-05-18T02:12:10;0.10;;;0.00;;
76123;SDS011;65173;48.066;20.976;2023-05-18T02:15:13;0.17;;;0.15;;
76123;SDS011;65173;48.066;20.976;2023-05-18T02:18:16;0.30;;;0.22;;
76123;SDS011;65173;48.066;20.976;2023-05-18T02:21:19;0.05;;;0.05;;
76123;SDS011;65173;48.066;20.976;2023-05-18T02:24:23;0.45;;;0.20;;
76123;SDS011;65173;48.066;20.976;2023-05-18T02:27:26;1.00;;;0.32;;
76123;SDS011;65173;48.066;20.976;2023-05-18T02:30:29;1.15;;;0.25;;
76123;SDS011;65173;48.066;20.976;2023-05-18T02:33:34;0.13;;;0.03;;
76123;SDS011;65173;48.066;20.976;2023-05-18T02:36:41;0.00;;;0.00;;
76123;SDS011;65173;48.066;20.976;2023-05-18T02:39:44;0.20;;;0.17;;
76123;SDS011;65173;48.066;20.976;2023-05-18T02:42:48;0.30;;;0.10;;
76123;SDS011;65173;48.066;20.976;2023-05-18T02:45:50;0.35;;;0.10;;
76123;SDS011;65173;48.066;20.976;2023-05-18T02:48:53;0.10;;;0.05;;
76123;SDS011;65173;48.066;20.976;2023-05-18T02:51:57;0.20;;;0.20;;
76123;SDS011;65173;48.066;20.976;2023-05-18T02:55:00;0.15;;;0.15;;
76123;SDS011;65173;48.066;20.976;2023-05-18T02:58:22;2.05;;;0.20;;
76123;SDS011;65173;48.066;20.976;2023-05-18T03:01:34;0.10;;;0.10;;
76123;SDS011;65173;48.066;20.976;2023-05-18T03:04:38;0.10;;;0.10;;
76123;SDS011;65173;48.066;20.976;2023-05-18T03:07:41;0.20;;;0.15;;
76123;SDS011;65173;48.066;20.976;2023-05-18T03:11:02;0.00;;;0.00;;
76123;SDS011;65173;48.066;20.976;2023-05-18T03:14:05;0.00;;;0.00;;
76123;SDS011;65173;48.066;20.976;2023-05-18T03:17:08;0.00;;;0.00;;
76123;SDS011;65173;48.066;20.976;2023-05-18T03:20:10;0.15;;;0.10;;
76123;SDS011;65173;48.066;20.976;2023-05-18T03:23:15;0.00;;;0.00;;
76123;SDS011;65173;48.066;20.976;2023-05-18T03:26:18;0.28;;;0.28;;
76123;SDS011;65173;48.066;20.976;2023-05-18T03:29:21;0.10;;;0.10;;
76123;SDS011;65173;48.066;20.976;2023-05-18T03:32:25;0.00;;;0.00;;
76123;SDS011;65173;48.066;20.976;2023-05-18T03:35:33;0.27;;;0.07;;
76123;SDS011;65173;48.066;20.976;2023-05-18T03:38:35;0.20;;;0.10;;
76123;SDS011;65173;48.066;20.976;2023-05-18T03:41:43;0.05;;;0.00;;
76123;SDS011;65173;48.066;20.976;2023-05-18T03:44:45;0.37;;;0.30;;
76123;SDS011;65173;48.066;20.976;2023-05-18T03:47:48;0.45;;;0.15;;
76123;SDS011;65173;48.066;20.976;2023-05-18T03:50:51;0.30;;;0.20;;
76123;SDS011;65173;48.066;20.976;2023-05-18T03:53:54;0.00;;;0.00;;
76123;SDS011;65173;48.066;20.976;2023-05-18T03:56:57;0.25;;;0.10;;
76123;SDS011;65173;48.066;20.976;2023-05-18T03:59:59;0.17;;;0.17;;
76123;SDS011;65173;48.066;20.976;2023-05-18T04:03:05;0.20;;;0.20;;
76123;SDS011;65173;48.066;20.976;2023-05-18T04:06:07;0.10;;;0.10;;
76123;SDS011;65173;48.066;20.976;2023-05-18T04:09:11;0.10;;;0.10;;
76123;SDS011;65173;48.066;20.976;2023-05-18T04:12:16;0.00;;;0.00;;
76123;SDS011;65173;48.066;20.976;2023-05-18T04:15:19;0.17;;;0.17;;
76123;SDS011;65173;48.066;20.976;2023-05-18T04:18:23;0.00;;;0.00;;
76123;SDS011;65173;48.066;20.976;2023-05-18T04:21:25;0.25;;;0.10;;
76123;SDS011;65173;48.066;20.976;2023-05-18T04:24:28;0.80;;;0.20;;
76123;SDS011;65173;48.066;20.976;2023-05-18T04:27:31;0.30;;;0.30;;
76123;SDS011;65173;48.066;20.976;2023-05-18T04:30:35;0.65;;;0.10;;
76123;SDS011;65173;48.066;20.976;2023-05-18T04:33:41;0.10;;;0.10;;
76123;SDS011;65173;48.066;20.976;2023-05-18T04:36:48;0.10;;;0.10;;
76123;SDS011;65173;48.066;20.976;2023-05-18T04:39:50;0.10;;;0.10;;
76123;SDS011;65173;48.066;20.976;2023-05-18T04:42:55;0.00;;;0.00;;
76123;SDS011;65173;48.066;20.976;2023-05-18T04:46:00;0.30;;;0.13;;
76123;SDS011;65173;48.066;20.976;2023-05-18T04:49:04;0.00;;;0.00;;
76123;SDS011;65173;48.066;20.976;2023-05-18T04:52:08;0.10;;;0.00;;
76123;SDS011;65173;48.066;20.976;2023-05-18T04:55:13;0.22;;;0.20;;
76123;SDS011;65173;48.066;20.976;2023-05-18T04:58:16;0.10;;;0.10;;
76123;SDS011;65173;48.066;20.976;2023-05-18T05:01:19;0.08;;;0.08;;
76123;SDS011;65173;48.066;20.976;2023-05-18T05:04:22;0.10;;;0.10;;
76123;SDS011;65173;48.066;20.976;2023-05-18T05:07:25;0.47;;;0.20;;
76123;SDS011;65173;48.066;20.976;2023-05-18T05:10:30;0.10;;;0.10;;
76123;SDS011;65173;48.066;20.976;2023-05-18T05:13:33;0.10;;;0.00;;
76123;SDS011;65173;48.066;20.976;2023-05-18T05:16:37;0.03;;;0.03;;
76123;SDS011;65173;48.066;20.976;2023-05-18T05:19:40;0.15;;;0.00;;
76123;SDS011;65173;48.066;20.976;2023-05-18T05:22:44;0.00;;;0.00;;
76123;SDS011;65173;48.066;20.976;2023-05-18T05:25:50;0.30;;;0.25;;
76123;SDS011;65173;48.066;20.976;2023-05-18T05:28:52;0.38;;;0.30;;
76123;SDS011;65173;48.066;20.976;2023-05-18T05:31:55;2.67;;;0.20;;
76123;SDS011;65173;48.066;20.976;2023-05-18T05:34:58;0.22;;;0.20;;
76123;SDS011;65173;48.066;20.976;2023-05-18T05:38:01;0.10;;;0.10;;
76123;SDS011;65173;48.066;20.976;2023-05-18T05:41:05;1.58;;;0.30;;
76123;SDS011;65173;48.066;20.976;2023-05-18T05:44:08;0.10;;;0.10;;
76123;SDS011;65173;48.066;20.976;2023-05-18T05:47:11;0.10;;;0.10;;
76123;SDS011;65173;48.066;20.976;2023-05-18T05:50:15;0.47;;;0.10;;
76123;SDS011;65173;48.066;20.976;2023-05-18T05:53:20;0.85;;;0.20;;
76123;SDS011;65173;48.066;20.976;2023-05-18T05:56:24;0.47;;;0.25;;
76123;SDS011;65173;48.066;20.976;2023-05-18T05:59:27;0.10;;;0.00;;
76123;SDS011;65173;48.066;20.976;2023-05-18T06:02:30;0.30;;;0.30;;
76123;SDS011;65173;48.066;20.976;2023-05-18T06:05:33;0.10;;;0.10;;
76123;SDS011;65173;48.066;20.976;2023-05-18T06:08:37;0.00;;;0.00;;
76123;SDS011;65173;48.066;20.976;2023-05-18T06:11:40;0.20;;;0.20;;
76123;SDS011;65173;48.066;20.976;2023-05-18T06:14:43;0.52;;;0.20;;
76123;SDS011;65173;48.066;20.976;2023-05-18T06:17:46;0.07;;;0.00;;
76123;SDS011;65173;48.066;20.976;2023-05-18T06:20:49;0.10;;;0.10;;
76123;SDS011;65173;48.066;20.976;2023-05-18T06:23:54;0.05;;;0.05;;
76123;SDS011;65173;48.066;20.976;2023-05-18T06:27:08;0.35;;;0.35;;
76123;SDS011;65173;48.066;20.976;2023-05-18T06:30:14;0.70;;;0.30;;
76123;SDS011;65173;48.066;20.976;2023-05-18T06:33:36;0.28;;;0.17;;
76123;SDS011;65173;48.066;20.976;2023-05-18T06:36:39;0.30;;;0.30;;
76123;SDS011;65173;48.066;20.976;2023-05-18T06:39:42;0.20;;;0.20;;
76123;SDS011;65173;48.066;20.976;2023-05-18T06:42:45;0.98;;;0.20;;
76123;SDS011;65173;48.066;20.976;2023-05-18T06:46:20;0.28;;;0.10;;
76123;SDS011;65173;48.066;20.976;2023-05-18T06:49:27;0.30;;;0.30;;
76123;SDS011;65173;48.066;20.976;2023-05-18T06:52:30;0.38;;;0.13;;
76123;SDS011;65173;48.066;20.976;2023-05-18T06:55:33;0.20;;;0.10;;
76123;SDS011;65173;48.066;20.976;2023-05-18T06:58:36;0.30;;;0.30;;
76123;SDS011;65173;48.066;20.976;2023-05-18T07:01:39;0.25;;;0.22;;
76123;SDS011;65173;48.066;20.976;2023-05-18T07:04:42;0.10;;;0.10;;
76123;SDS011;65173;48.066;20.976;2023-05-18T07:07:45;0.20;;;0.10;;
76123;SDS011;65173;48.066;20.976;2023-05-18T07:10:48;0.13;;;0.03;;
76123;SDS011;65173;48.066;20.976;2023-05-18T07:13:51;0.15;;;0.10;;
76123;SDS011;65173;48.066;20.976;2023-05-18T07:16:54;0.25;;;0.20;;
76123;SDS011;65173;48.066;20.976;2023-05-18T07:19:56;0.30;;;0.23;;
76123;SDS011;65173;48.066;20.976;2023-05-18T07:22:59;0.10;;;0.10;;
76123;SDS011;65173;48.066;20.976;2023-05-18T07:26:02;0.20;;;0.15;;
76123;SDS011;65173;48.066;20.976;2023-05-18T07:29:05;0.28;;;0.20;;
76123;SDS011;65173;48.066;20.976;2023-05-18T07:32:09;0.25;;;0.17;;
76123;SDS011;65173;48.066;20.976;2023-05-18T07:35:12;0.55;;;0.55;;
76123;SDS011;65173;48.066;20.976;2023-05-18T07:38:14;0.45;;;0.10;;
76123;SDS011;65173;48.066;20.976;2023-05-18T07:41:17;0.70;;;0.33;;
76123;SDS011;65173;48.066;20.976;2023-05-18T07:44:20;1.00;;;0.60;;
76123;SDS011;65173;48.066;20.976;2023-05-18T07:47:22;1.00;;;0.32;;
76123;SDS011;65173;48.066;20.976;2023-05-18T07:50:25;0.50;;;0.47;;
76123;SDS011;65173;48.066;20.976;2023-05-18T07:53:28;1.15;;;0.47;;
76123;SDS011;65173;48.066;20.976;2023-05-18T07:56:30;1.55;;;0.93;;
76123;SDS011;65173;48.066;20.976;2023-05-18T07:59:33;0.95;;;0.43;;
76123;SDS011;65173;48.066;20.976;2023-05-18T08:02:35;0.65;;;0.20;;
76123;SDS011;65173;48.066;20.976;2023-05-18T08:05:39;0.52;;;0.30;;
76123;SDS011;65173;48.066;20.976;2023-05-18T08:08:42;0.28;;;0.20;;
76123;SDS011;65173;48.066;20.976;2023-05-18T08:11:44;0.73;;;0.30;;
76123;SDS011;65173;48.066;20.976;2023-05-18T08:14:47;1.70;;;0.32;;
76123;SDS011;65173;48.066;20.976;2023-05-18T08:17:52;0.68;;;0.43;;
76123;SDS011;65173;48.066;20.976;2023-05-18T08:20:56;1.20;;;0.20;;
76123;SDS011;65173;48.066;20.976;2023-05-18T08:23:59;0.20;;;0.20;;
76123;SDS011;65173;48.066;20.976;2023-05-18T08:27:01;0.45;;;0.45;;
76123;SDS011;65173;48.066;20.976;2023-05-18T08:30:04;0.47;;;0.40;;
76123;SDS011;65173;48.066;20.976;2023-05-18T08:33:08;0.47;;;0.40;;
76123;SDS011;65173;48.066;20.976;2023-05-18T08:36:10;0.68;;;0.50;;
76123;SDS011;65173;48.066;20.976;2023-05-18T08:39:13;1.02;;;0.52;;
76123;SDS011;65173;48.066;20.976;2023-05-18T08:42:22;0.87;;;0.27;;
76123;SDS011;65173;48.066;20.976;2023-05-18T08:46:06;0.70;;;0.50;;
76123;SDS011;65173;48.066;20.976;2023-05-18T08:49:17;0.63;;;0.30;;
76123;SDS011;65173;48.066;20.976;2023-05-18T08:52:23;0.50;;;0.30;;
76123;SDS011;65173;48.066;20.976;2023-05-18T08:55:30;0.60;;;0.40;;
76123;SDS011;65173;48.066;20.976;2023-05-18T08:58:43;0.73;;;0.32;;
76123;SDS011;65173;48.066;20.976;2023-05-18T09:01:49;4.22;;;0.60;;
76123;SDS011;65173;48.066;20.976;2023-05-18T09:04:53;1.10;;;0.50;;
76123;SDS011;65173;48.066;20.976;2023-05-18T09:07:57;0.90;;;0.47;;
76123;SDS011;65173;48.066;20.976;2023-05-18T09:11:01;0.70;;;0.52;;
76123;SDS011;65173;48.066;20.976;2023-05-18T09:14:04;0.73;;;0.30;;
76123;SDS011;65173;48.066;20.976;2023-05-18T09:17:07;2.00;;;1.42;;
76123;SDS011;65173;48.066;20.976;2023-05-18T09:20:10;2.25;;;1.38;;
76123;SDS011;65173;48.066;20.976;2023-05-18T09:23:14;1.97;;;0.60;;
76123;SDS011;65173;48.066;20.976;2023-05-18T09:26:18;0.55;;;0.30;;
76123;SDS011;65173;48.066;20.976;2023-05-18T09:29:22;1.10;;;0.60;;
76123;SDS011;65173;48.066;20.976;2023-05-18T09:32:25;0.68;;;0.65;;
76123;SDS011;65173;48.066;20.976;2023-05-18T09:35:28;0.88;;;0.50;;
76123;SDS011;65173;48.066;20.976;2023-05-18T09:38:37;1.40;;;0.88;;
76123;SDS011;65173;48.066;20.976;2023-05-18T09:41:40;1.67;;;1.35;;
76123;SDS011;65173;48.066;20.976;2023-05-18T09:44:43;1.70;;;1.07;;
76123;SDS011;65173;48.066;20.976;2023-05-18T09:47:47;0.90;;;0.73;;
76123;SDS011;65173;48.066;20.976;2023-05-18T09:50:51;1.52;;;0.90;;
76123;SDS011;65173;48.066;20.976;2023-05-18T09:53:54;1.80;;;0.77;;
76123;SDS011;65173;48.066;20.976;2023-05-18T09:56:58;0.82;;;0.40;;
76123;SDS011;65173;48.066;20.976;2023-05-18T10:00:16;0.43;;;0.32;;
76123;SDS011;65173;48.066;20.976;2023-05-18T10:03:23;0.50;;;0.30;;
76123;SDS011;65173;48.066;20.976;2023-05-18T10:06:26;0.65;;;0.65;;
76123;SDS011;65173;48.066;20.976;2023-05-18T10:09:29;0.20;;;0.20;;
76123;SDS011;65173;48.066;20.976;2023-05-18T10:12:32;1.75;;;0.38;;
76123;SDS011;65173;48.066;20.976;2023-05-18T10:15:35;0.30;;;0.30;;
76123;SDS011;65173;48.066;20.976;2023-05-18T10:18:39;0.35;;;0.35;;
76123;SDS011;65173;48.066;20.976;2023-05-18T10:21:42;0.20;;;0.20;;
76123;SDS011;65173;48.066;20.976;2023-05-18T10:24:50;0.40;;;0.40;;
76123;SDS011;65173;48.066;20.976;2023-05-18T10:27:58;1.48;;;0.40;;
76123;SDS011;65173;48.066;20.976;2023-05-18T10:31:04;0.50;;;0.50;;
76123;SDS011;65173;48.066;20.976;2023-05-18T10:34:09;0.30;;;0.25;;
76123;SDS011;65173;48.066;20.976;2023-05-18T10:37:12;0.40;;;0.40;;
76123;SDS011;65173;48.066;20.976;2023-05-18T10:40:17;0.30;;;0.30;;
76123;SDS011;65173;48.066;20.976;2023-05-18T10:43:21;0.55;;;0.55;;
76123;SDS011;65173;48.066;20.976;2023-05-18T10:46:29;0.60;;;0.40;;
76123;SDS011;65173;48.066;20.976;2023-05-18T10:49:32;0.30;;;0.30;;
76123;SDS011;65173;48.066;20.976;2023-05-18T10:52:36;0.70;;;0.55;;
76123;SDS011;65173;48.066;20.976;2023-05-18T10:55:39;1.10;;;0.40;;
76123;SDS011;65173;48.066;20.976;2023-05-18T10:58:42;0.73;;;0.50;;
76123;SDS011;65173;48.066;20.976;2023-05-18T11:01:47;0.55;;;0.43;;
76123;SDS011;65173;48.066;20.976;2023-05-18T11:04:51;0.90;;;0.70;;
76123;SDS011;65173;48.066;20.976;2023-05-18T11:07:59;0.63;;;0.43;;
76123;SDS011;65173;48.066;20.976;2023-05-18T11:11:06;1.30;;;0.60;;
76123;SDS011;65173;48.066;20.976;2023-05-18T11:14:09;0.70;;;0.60;;
76123;SDS011;65173;48.066;20.976;2023-05-18T11:17:20;1.13;;;0.60;;
76123;SDS011;65173;48.066;20.976;2023-05-18T11:20:24;0.60;;;0.60;;
76123;SDS011;65173;48.066;20.976;2023-05-18T11:23:33;0.98;;;0.60;;
76123;SDS011;65173;48.066;20.976;2023-05-18T11:26:46;0.70;;;0.50;;
76123;SDS011;65173;48.066;20.976;2023-05-18T11:29:50;1.45;;;0.40;;
76123;SDS011;65173;48.066;20.976;2023-05-18T11:33:25;0.50;;;0.50;;
76123;SDS011;65173;48.066;20.976;2023-05-18T11:36:29;0.50;;;0.40;;
76123;SDS011;65173;48.066;20.976;2023-05-18T11:39:53;0.75;;;0.43;;
76123;SDS011;65173;48.066;20.976;2023-05-18T11:43:02;1.23;;;0.32;;
76123;SDS011;65173;48.066;20.976;2023-05-18T11:46:04;0.40;;;0.40;;
76123;SDS011;65173;48.066;20.976;2023-05-18T11:49:19;1.43;;;0.60;;
76123;SDS011;65173;48.066;20.976;2023-05-18T11:52:27;0.68;;;0.68;;
76123;SDS011;65173;48.066;20.976;2023-05-18T11:55:37;0.50;;;0.40;;
76123;SDS011;65173;48.066;20.976;2023-05-18T11:58:40;0.90;;;0.30;;
76123;SDS011;65173;48.066;20.976;2023-05-18T12:01:42;0.52;;;0.30;;
76123;SDS011;65173;48.066;20.976;2023-05-18T12:04:50;1.42;;;0.57;;
76123;SDS011;65173;48.066;20.976;2023-05-18T12:07:54;1.15;;;0.70;;
76123;SDS011;65173;48.066;20.976;2023-05-18T12:10:57;0.43;;;0.43;;
76123;SDS011;65173;48.066;20.976;2023-05-18T12:14:00;0.73;;;0.65;;
76123;SDS011;65173;48.066;20.976;2023-05-18T12:17:03;2.50;;;0.60;;
76123;SDS011;65173;48.066;20.976;2023-05-18T12:20:10;1.87;;;0.57;;
76123;SDS011;65173;48.066;20.976;2023-05-18T12:23:17;0.68;;;0.50;;
76123;SDS011;65173;48.066;20.976;2023-05-18T12:26:19;0.82;;;0.60;;
76123;SDS011;65173;48.066;20.976;2023-05-18T12:29:27;1.20;;;0.70;;
76123;SDS011;65173;48.066;20.976;2023-05-18T12:32:29;0.73;;;0.52;;
76123;SDS011;65173;48.066;20.976;2023-05-18T12:35:32;3.33;;;0.68;;
76123;SDS011;65173;48.066;20.976;2023-05-18T12:38:35;1.02;;;0.50;;
76123;SDS011;65173;48.066;20.976;2023-05-18T12:41:37;0.80;;;0.80;;
76123;SDS011;65173;48.066;20.976;2023-05-18T12:44:41;0.77;;;0.60;;
76123;SDS011;65173;48.066;20.976;2023-05-18T12:47:47;0.60;;;0.60;;
76123;SDS011;65173;48.066;20.976;2023-05-18T12:50:55;0.70;;;0.47;;
76123;SDS011;65173;48.066;20.976;2023-05-18T12:53:58;0.77;;;0.40;;
76123;SDS011;65173;48.066;20.976;2023-05-18T12:57:04;0.60;;;0.50;;
76123;SDS011;65173;48.066;20.976;2023-05-18T13:00:10;0.83;;;0.70;;
76123;SDS011;65173;48.066;20.976;2023-05-18T13:03:14;0.50;;;0.50;;
76123;SDS011;65173;48.066;20.976;2023-05-18T13:06:18;0.40;;;0.40;;
76123;SDS011;65173;48.066;20.976;2023-05-18T13:09:21;1.17;;;0.60;;
76123;SDS011;65173;48.066;20.976;2023-05-18T13:15:45;1.23;;;0.60;;
76123;SDS011;65173;48.066;20.976;2023-05-18T13:18:54;1.13;;;0.30;;
76123;SDS011;65173;48.066;20.976;2023-05-18T13:22:07;0.50;;;0.30;;
76123;SDS011;65173;48.066;20.976;2023-05-18T13:25:10;0.38;;;0.38;;
76123;SDS011;65173;48.066;20.976;2023-05-18T13:28:13;0.30;;;0.30;;
76123;SDS011;65173;48.066;20.976;2023-05-18T13:31:17;0.70;;;0.50;;
76123;SDS011;65173;48.066;20.976;2023-05-18T13:34:21;0.70;;;0.50;;
76123;SDS011;65173;48.066;20.976;2023-05-18T13:37:24;0.63;;;0.40;;
76123;SDS011;65173;48.066;20.976;2023-05-18T13:40:26;0.60;;;0.30;;
76123;SDS011;65173;48.066;20.976;2023-05-18T13:43:30;0.50;;;0.47;;
76123;SDS011;65173;48.066;20.976;2023-05-18T13:46:33;0.50;;;0.40;;
76123;SDS011;65173;48.066;20.976;2023-05-18T13:49:39;0.55;;;0.50;;
76123;SDS011;65173;48.066;20.976;2023-05-18T13:52:41;2.23;;;0.67;;
76123;SDS011;65173;48.066;20.976;2023-05-18T13:55:45;0.80;;;0.80;;
76123;SDS011;65173;48.066;20.976;2023-05-18T13:58:47;0.30;;;0.30;;
76123;SDS011;65173;48.066;20.976;2023-05-18T14:01:51;0.50;;;0.40;;
76123;SDS011;65173;48.066;20.976;2023-05-18T14:04:53;0.57;;;0.57;;
76123;SDS011;65173;48.066;20.976;2023-05-18T14:07:56;1.00;;;0.60;;
76123;SDS011;65173;48.066;20.976;2023-05-18T14:10:58;0.63;;;0.60;;
76123;SDS011;65173;48.066;20.976;2023-05-18T14:14:01;1.02;;;0.75;;
76123;SDS011;65173;48.066;20.976;2023-05-18T14:17:04;0.60;;;0.60;;
76123;SDS011;65173;48.066;20.976;2023-05-18T14:20:07;0.85;;;0.63;;
76123;SDS011;65173;48.066;20.976;2023-05-18T14:23:10;1.40;;;0.60;;
76123;SDS011;65173;48.066;20.976;2023-05-18T14:26:12;1.23;;;0.70;;
76123;SDS011;65173;48.066;20.976;2023-05-18T14:29:15;0.82;;;0.52;;
76123;SDS011;65173;48.066;20.976;2023-05-18T14:32:18;0.40;;;0.40;;
76123;SDS011;65173;48.066;20.976;2023-05-18T14:35:24;0.80;;;0.55;;
76123;SDS011;65173;48.066;20.976;2023-05-18T14:38:27;0.88;;;0.80;;
76123;SDS011;65173;48.066;20.976;2023-05-18T14:41:29;1.00;;;0.60;;
76123;SDS011;65173;48.066;20.976;2023-05-18T14:44:32;0.55;;;0.50;;
76123;SDS011;65173;48.066;20.976;2023-05-18T14:47:35;0.50;;;0.50;;
76123;SDS011;65173;48.066;20.976;2023-05-18T14:50:37;1.05;;;0.68;;
76123;SDS011;65173;48.066;20.976;2023-05-18T14:53:40;0.50;;;0.50;;
76123;SDS011;65173;48.066;20.976;2023-05-18T14:56:43;2.38;;;0.93;;
76123;SDS011;65173;48.066;20.976;2023-05-18T14:59:46;0.85;;;0.45;;
76123;SDS011;65173;48.066;20.976;2023-05-18T15:02:48;0.43;;;0.40;;
76123;SDS011;65173;48.066;20.976;2023-05-18T15:05:51;0.60;;;0.50;;
76123;SDS011;65173;48.066;20.976;2023-05-18T15:08:53;0.57;;;0.57;;
76123;SDS011;65173;48.066;20.976;2023-05-18T15:11:57;0.22;;;0.20;;
76123;SDS011;65173;48.066;20.976;2023-05-18T15:14:59;0.88;;;0.60;;
76123;SDS011;65173;48.066;20.976;2023-05-18T15:18:02;0.68;;;0.60;;
76123;SDS011;65173;48.066;20.976;2023-05-18T15:21:05;1.15;;;0.63;;
76123;SDS011;65173;48.066;20.976;2023-05-18T15:24:07;0.87;;;0.73;;
76123;SDS011;65173;48.066;20.976;2023-05-18T15:27:10;0.63;;;0.52;;
76123;SDS011;65173;48.066;20.976;2023-05-18T15:30:13;1.58;;;0.50;;
76123;SDS011;65173;48.066;20.976;2023-05-18T15:33:16;0.50;;;0.50;;
76123;SDS011;65173;48.066;20.976;2023-05-18T15:36:18;0.85;;;0.43;;
76123;SDS011;65173;48.066;20.976;2023-05-18T15:39:22;0.40;;;0.40;;
76123;SDS011;65173;48.066;20.976;2023-05-18T15:42:25;1.30;;;0.60;;
76123;SDS011;65173;48.066;20.976;2023-05-18T15:45:28;2.92;;;0.70;;
76123;SDS011;65173;48.066;20.976;2023-05-18T15:48:30;1.02;;;0.50;;
76123;SDS011;65173;48.066;20.976;2023-05-18T15:51:33;1.13;;;0.47;;
76123;SDS011;65173;48.066;20.976;2023-05-18T15:54:35;0.97;;;0.83;;
76123;SDS011;65173;48.066;20.976;2023-05-18T15:57:38;0.65;;;0.50;;
76123;SDS011;65173;48.066;20.976;2023-05-18T16:00:40;1.25;;;0.80;;
76123;SDS011;65173;48.066;20.976;2023-05-18T16:03:43;2.63;;;0.63;;
76123;SDS011;65173;48.066;20.976;2023-05-18T16:06:47;1.17;;;0.80;;
76123;SDS011;65173;48.066;20.976;2023-05-18T16:09:49;0.95;;;0.60;;
76123;SDS011;65173;48.066;20.976;2023-05-18T16:12:52;0.80;;;0.55;;
76123;SDS011;65173;48.066;20.976;2023-05-18T16:15:54;0.43;;;0.35;;
76123;SDS011;65173;48.066;20.976;2023-05-18T16:18:57;1.85;;;0.77;;
76123;SDS011;65173;48.066;20.976;2023-05-18T16:22:01;0.40;;;0.40;;
76123;SDS011;65173;48.066;20.976;2023-05-18T16:25:04;0.77;;;0.60;;
76123;SDS011;65173;48.066;20.976;2023-05-18T16:28:07;0.63;;;0.28;;
76123;SDS011;65173;48.066;20.976;2023-05-18T16:31:10;1.42;;;0.98;;
76123;SDS011;65173;48.066;20.976;2023-05-18T16:34:13;2.70;;;1.43;;
76123;SDS011;65173;48.066;20.976;2023-05-18T16:37:16;0.98;;;0.80;;
76123;SDS011;65173;48.066;20.976;2023-05-18T16:40:18;1.25;;;0.82;;
76123;SDS011;65173;48.066;20.976;2023-05-18T16:43:21;1.23;;;0.82;;
76123;SDS011;65173;48.066;20.976;2023-05-18T16:46:24;1.60;;;0.98;;
76123;SDS011;65173;48.066;20.976;2023-05-18T16:49:27;2.65;;;1.58;;
76123;SDS011;65173;48.066;20.976;2023-05-18T16:52:29;1.23;;;1.00;;
76123;SDS011;65173;48.066;20.976;2023-05-18T16:55:32;1.67;;;1.10;;
76123;SDS011;65173;48.066;20.976;2023-05-18T16:58:34;1.95;;;1.00;;
76123;SDS011;65173;48.066;20.976;2023-05-18T17:01:37;2.65;;;1.45;;
76123;SDS011;65173;48.066;20.976;2023-05-18T17:04:40;2.27;;;1.67;;
76123;SDS011;65173;48.066;20.976;2023-05-18T17:07:43;2.97;;;1.60;;
76123;SDS011;65173;48.066;20.976;2023-05-18T17:10:46;2.55;;;1.75;;
76123;SDS011;65173;48.066;20.976;2023-05-18T17:13:49;3.08;;;2.28;;
76123;SDS011;65173;48.066;20.976;2023-05-18T17:16:53;2.00;;;1.17;;
76123;SDS011;65173;48.066;20.976;2023-05-18T17:19:56;2.35;;;1.48;;
76123;SDS011;65173;48.066;20.976;2023-05-18T17:22:59;2.20;;;1.48;;
76123;SDS011;65173;48.066;20.976;2023-05-18T17:26:03;4.60;;;2.50;;
76123;SDS011;65173;48.066;20.976;2023-05-18T17:29:07;3.10;;;2.08;;
76123;SDS011;65173;48.066;20.976;2023-05-18T17:32:10;2.55;;;1.90;;
76123;SDS011;65173;48.066;20.976;2023-05-18T17:35:13;5.00;;;2.13;;
76123;SDS011;65173;48.066;20.976;2023-05-18T17:38:16;6.53;;;2.85;;
76123;SDS011;65173;48.066;20.976;2023-05-18T17:41:18;10.50;;;4.22;;
76123;SDS011;65173;48.066;20.976;2023-05-18T17:44:23;5.30;;;2.45;;
76123;SDS011;65173;48.066;20.976;2023-05-18T17:47:25;1.35;;;1.20;;
76123;SDS011;65173;48.066;20.976;2023-05-18T17:50:29;1.20;;;0.80;;
76123;SDS011;65173;48.066;20.976;2023-05-18T17:53:32;1.20;;;0.70;;
76123;SDS011;65173;48.066;20.976;2023-05-18T17:56:35;2.50;;;1.30;;
76123;SDS011;65173;48.066;20.976;2023-05-18T17:59:38;1.55;;;0.82;;
76123;SDS011;65173;48.066;20.976;2023-05-18T18:02:40;1.50;;;0.80;;
76123;SDS011;65173;48.066;20.976;2023-05-18T18:05:43;3.00;;;0.80;;
76123;SDS011;65173;48.066;20.976;2023-05-18T18:08:50;0.77;;;0.40;;
76123;SDS011;65173;48.066;20.976;2023-05-18T18:11:53;0.63;;;0.43;;
76123;SDS011;65173;48.066;20.976;2023-05-18T18:14:58;0.80;;;0.75;;
76123;SDS011;65173;48.066;20.976;2023-05-18T18:18:00;1.50;;;1.30;;
76123;SDS011;65173;48.066;20.976;2023-05-18T18:21:03;0.82;;;0.70;;
76123;SDS011;65173;48.066;20.976;2023-05-18T18:24:07;1.00;;;0.70;;